Time;durP1;ratioP1;P1;durP2;ratioP2;P2;SDS_P1;SDS_P2;PMS_P1;PMS_P2;Temp;Humidity;BMP_temperature;BMP_pressure;BME280_temperature;BME280_humidity;BME280_pressure;Samples;Min_cycle;Max_cycle;Signal;HPM_P1;HPM_P2
2021/05/11 00:01:57;;;;;;;6.20;2.33;;;17.50;99.90;;;;;;5069635;28;20029;-71
2021/05/11 00:04:23;;;;;;;6.45;2.22;;;17.50;99.90;;;;;;5064258;28;20020;-72
2021/05/11 00:06:49;;;;;;;8.63;2.40;;;17.50;99.90;;;;;;5064993;28;20569;-71
2021/05/11 00:09:14;;;;;;;3.97;1.83;;;17.50;99.90;;;;;;5065226;28;20111;-71
2021/05/11 00:11:40;;;;;;;4.57;2.22;;;17.50;99.90;;;;;;5067517;28;20029;-71
2021/05/11 00:14:06;;;;;;;6.97;1.60;;;17.50;99.90;;;;;;5064066;28;20211;-71
2021/05/11 00:16:34;;;;;;;6.07;1.90;;;17.40;99.90;;;;;;5064427;28;20029;-71
2021/05/11 00:19:03;;;;;;;6.55;2.40;;;17.50;99.90;;;;;;5067068;28;20028;-72
2021/05/11 00:21:28;;;;;;;3.30;1.85;;;17.50;99.90;;;;;;5066003;28;20027;-71
2021/05/11 00:23:54;;;;;;;7.85;2.10;;;17.50;99.90;;;;;;5061862;28;20021;-71
2021/05/11 00:26:20;;;;;;;5.13;1.98;;;17.40;99.90;;;;;;5063115;28;20619;-71
2021/05/11 00:28:45;;;;;;;4.88;1.85;;;17.40;99.90;;;;;;5050443;28;20032;-71
2021/05/11 00:31:11;;;;;;;6.53;2.13;;;17.40;99.90;;;;;;5068351;28;20040;-71
2021/05/11 00:33:37;;;;;;;6.78;2.05;;;17.40;99.90;;;;;;5069227;28;20044;-71
2021/05/11 00:36:02;;;;;;;5.93;2.15;;;17.30;99.90;;;;;;5064937;28;20048;-72
2021/05/11 00:38:29;;;;;;;7.70;2.15;;;17.20;99.90;;;;;;5062150;28;20021;-72
2021/05/11 00:40:55;;;;;;;6.72;1.92;;;17.20;99.90;;;;;;5061701;28;20437;-72
2021/05/11 00:43:20;;;;;;;4.43;1.88;;;17.20;99.90;;;;;;5046229;28;20025;-72
2021/05/11 00:45:46;;;;;;;9.93;2.10;;;17.20;99.90;;;;;;5061914;28;20027;-72
2021/05/11 00:48:12;;;;;;;5.93;2.22;;;17.20;99.90;;;;;;5060560;28;20379;-72
2021/05/11 00:50:38;;;;;;;4.05;1.73;;;17.20;99.90;;;;;;5064188;28;20032;-71
2021/05/11 00:53:04;;;;;;;6.35;1.70;;;17.10;99.90;;;;;;5060911;28;20036;-71
2021/05/11 00:55:30;;;;;;;2.78;1.92;;;17.10;99.90;;;;;;5065083;28;20040;-71
2021/05/11 00:57:56;;;;;;;4.40;1.80;;;17.10;99.90;;;;;;5062210;28;20025;-72
2021/05/11 01:00:22;;;;;;;6.88;1.98;;;17.00;99.90;;;;;;5049092;28;20508;-71
2021/05/11 01:02:48;;;;;;;6.53;2.85;;;16.90;99.90;;;;;;5063967;28;20069;-71
2021/05/11 01:05:14;;;;;;;3.60;1.83;;;17.00;99.90;;;;;;5060315;28;20031;-71
2021/05/11 01:07:39;;;;;;;6.80;1.90;;;17.00;99.90;;;;;;5044474;28;20455;-72
2021/05/11 01:10:06;;;;;;;11.52;2.55;;;17.10;99.90;;;;;;5042653;28;20493;-72
2021/05/11 01:12:31;;;;;;;7.13;1.77;;;17.10;99.90;;;;;;5061198;28;20090;-73
2021/05/11 01:14:57;;;;;;;6.95;2.10;;;17.10;99.90;;;;;;5056106;28;20024;-72
2021/05/11 01:17:25;;;;;;;7.38;2.30;;;17.00;99.90;;;;;;5062014;28;20158;-72
2021/05/11 01:19:57;;;;;;;6.95;2.30;;;17.10;99.90;;;;;;5049696;28;20073;-73
2021/05/11 01:24:59;;;;;;;8.00;2.00;;;17.10;99.90;;;;;;5063030;28;20147;-72
2021/05/11 01:33:14;;;;;;;4.75;2.53;;;17.00;99.90;;;;;;5063259;28;20110;-73
2021/05/11 02:23:11;;;;;;;8.98;2.33;;;16.70;99.90;;;;;;5058909;28;20034;-72
2021/05/11 02:25:36;;;;;;;3.95;2.13;;;16.80;99.90;;;;;;5063637;28;20021;-71
2021/05/11 02:28:02;;;;;;;4.18;1.92;;;16.80;99.90;;;;;;5063607;28;20583;-72
2021/05/11 02:30:28;;;;;;;6.22;2.60;;;16.80;99.90;;;;;;5064849;28;20071;-71
2021/05/11 02:32:53;;;;;;;9.30;2.80;;;16.90;99.90;;;;;;5067636;28;20064;-72
2021/05/11 02:35:19;;;;;;;5.30;2.35;;;16.90;99.90;;;;;;5063573;28;20031;-71
2021/05/11 02:37:46;;;;;;;6.53;2.60;;;16.80;99.90;;;;;;5059352;28;20028;-71
2021/05/11 02:40:14;;;;;;;10.13;2.55;;;16.80;99.90;;;;;;5062886;28;20025;-72
2021/05/11 02:42:44;;;;;;;6.20;2.15;;;16.80;99.90;;;;;;5066567;28;20601;-71
2021/05/11 02:45:11;;;;;;;4.90;2.08;;;16.80;99.90;;;;;;5064152;28;20039;-71
2021/05/11 02:47:48;;;;;;;5.80;1.95;;;16.70;99.90;;;;;;5075425;28;20187;-71
2021/05/11 02:50:19;;;;;;;8.68;2.70;;;16.70;99.90;;;;;;5060754;28;20029;-71
2021/05/11 02:52:46;;;;;;;5.13;2.08;;;16.70;99.90;;;;;;5078719;28;20036;-72
2021/05/11 02:55:13;;;;;;;10.35;2.33;;;16.70;99.90;;;;;;5044930;28;20487;-71
2021/05/11 02:57:39;;;;;;;5.40;2.33;;;16.80;99.90;;;;;;5064425;28;20020;-71
2021/05/11 03:00:07;;;;;;;6.55;2.15;;;16.70;99.90;;;;;;5061529;28;20376;-72
2021/05/11 03:02:32;;;;;;;4.53;2.67;;;16.70;99.90;;;;;;5058038;28;20035;-72
2021/05/11 03:04:58;;;;;;;6.40;2.22;;;16.70;99.90;;;;;;5065374;28;20108;-71
2021/05/11 03:07:25;;;;;;;6.18;2.30;;;16.80;99.90;;;;;;5056451;28;20028;-72
2021/05/11 03:09:51;;;;;;;5.47;2.20;;;16.80;99.90;;;;;;5060300;28;20493;-71
2021/05/11 03:12:17;;;;;;;7.97;2.80;;;16.80;99.90;;;;;;5061549;28;20082;-72
2021/05/11 03:14:42;;;;;;;8.85;2.90;;;16.80;99.90;;;;;;5063026;28;20028;-72
2021/05/11 03:17:09;;;;;;;6.57;2.35;;;16.80;99.90;;;;;;5064825;28;20029;-71
2021/05/11 03:19:34;;;;;;;5.05;2.70;;;16.80;99.90;;;;;;5061202;28;20033;-71
2021/05/11 03:22:01;;;;;;;8.38;2.33;;;16.80;99.90;;;;;;5060573;28;20128;-72
2021/05/11 03:24:27;;;;;;;4.20;1.98;;;16.80;99.90;;;;;;5058041;28;20075;-71
2021/05/11 03:26:52;;;;;;;3.83;2.13;;;16.80;99.90;;;;;;5057885;28;20029;-72
2021/05/11 03:29:18;;;;;;;7.38;2.67;;;16.80;99.90;;;;;;5062382;28;20099;-73
2021/05/11 03:31:44;;;;;;;3.47;1.98;;;16.80;99.90;;;;;;5065855;28;20037;-73
2021/05/11 03:34:10;;;;;;;7.50;2.47;;;16.80;99.90;;;;;;5048209;28;20024;-73
2021/05/11 03:36:36;;;;;;;4.32;2.20;;;16.70;99.90;;;;;;5042220;28;20032;-72
2021/05/11 03:39:05;;;;;;;5.55;2.28;;;16.70;99.90;;;;;;5062303;28;20111;-73
2021/05/11 03:41:53;;;;;;;9.93;2.50;;;16.70;99.90;;;;;;5061325;28;20028;-72
2021/05/11 03:44:29;;;;;;;4.20;2.45;;;16.60;99.90;;;;;;5059750;28;20021;-72
2021/05/11 03:46:54;;;;;;;6.63;2.25;;;16.60;99.90;;;;;;5062218;28;20108;-72
2021/05/11 03:49:20;;;;;;;5.28;2.40;;;16.60;99.90;;;;;;5044800;28;20107;-72
2021/05/11 03:51:46;;;;;;;8.32;2.85;;;16.60;99.90;;;;;;5059940;28;20037;-72
2021/05/11 03:54:12;;;;;;;3.42;2.60;;;16.70;99.90;;;;;;5058649;28;20024;-73
2021/05/11 03:56:38;;;;;;;3.58;2.58;;;16.70;99.90;;;;;;5060891;28;20021;-72
2021/05/11 03:59:05;;;;;;;6.13;2.72;;;16.50;99.90;;;;;;5057661;28;20036;-72
2021/05/11 04:01:31;;;;;;;5.80;2.80;;;16.50;99.90;;;;;;5059788;28;20111;-73
2021/05/11 04:03:57;;;;;;;5.75;2.90;;;16.60;99.90;;;;;;5064725;28;20073;-72
2021/05/11 04:06:23;;;;;;;4.68;3.03;;;16.60;99.90;;;;;;5061830;28;20032;-73
2021/05/11 04:09:43;;;;;;;5.45;2.90;;;16.60;99.90;;;;;;5061478;28;20048;-72
2021/05/11 04:12:00;;;;;;;6.70;2.88;;;16.60;99.90;;;;;;5054034;28;20092;-72
2021/05/11 04:17:08;;;;;;;7.13;3.10;;;16.60;99.90;;;;;;5058030;28;20109;-72
2021/05/11 04:19:35;;;;;;;8.07;3.58;;;16.60;99.90;;;;;;5042111;28;21184;-72
2021/05/11 04:22:01;;;;;;;6.40;2.72;;;16.60;99.90;;;;;;5060123;28;20021;-72
2021/05/11 04:24:28;;;;;;;7.47;4.03;;;16.60;99.90;;;;;;5058763;28;20025;-72
2021/05/11 04:26:54;;;;;;;9.40;3.42;;;16.60;99.90;;;;;;5055561;28;20029;-72
2021/05/11 04:29:20;;;;;;;7.30;2.92;;;16.60;99.90;;;;;;5063843;28;20111;-72
2021/05/11 04:31:45;;;;;;;6.18;3.10;;;16.60;99.90;;;;;;5061695;28;20453;-72
2021/05/11 04:34:11;;;;;;;9.75;3.53;;;16.60;99.90;;;;;;5060268;28;20029;-72
2021/05/11 04:36:36;;;;;;;12.07;3.80;;;16.60;99.90;;;;;;5059944;28;20040;-72
2021/05/11 04:39:04;;;;;;;6.88;2.53;;;16.50;99.90;;;;;;5042627;28;20021;-72
2021/05/11 04:41:30;;;;;;;5.32;2.70;;;16.40;99.90;;;;;;5059156;28;20029;-72
2021/05/11 04:43:57;;;;;;;8.25;2.70;;;16.40;99.90;;;;;;5053563;28;20039;-72
2021/05/11 04:46:39;;;;;;;6.53;2.38;;;16.30;99.90;;;;;;5057118;28;20032;-72
2021/05/11 04:49:05;;;;;;;4.38;2.40;;;16.30;99.90;;;;;;5057835;28;20055;-73
2021/05/11 04:51:30;;;;;;;6.25;2.92;;;16.40;99.90;;;;;;5056860;28;20064;-72
2021/05/11 04:53:57;;;;;;;6.47;2.80;;;16.40;99.90;;;;;;5060231;28;20400;-73
2021/05/11 04:56:23;;;;;;;7.55;2.95;;;16.40;99.90;;;;;;5055629;28;20029;-72
2021/05/11 04:58:48;;;;;;;6.63;3.03;;;16.40;99.90;;;;;;5058866;28;20082;-72
2021/05/11 05:01:14;;;;;;;7.53;3.13;;;16.30;99.90;;;;;;5039085;28;20120;-72
2021/05/11 05:03:41;;;;;;;8.52;3.42;;;16.30;99.90;;;;;;5055600;28;20029;-72
2021/05/11 05:06:07;;;;;;;6.72;3.25;;;16.40;99.90;;;;;;5055414;28;20009;-72
2021/05/11 05:08:33;;;;;;;10.82;4.20;;;16.40;99.90;;;;;;5044561;28;20095;-72
2021/05/11 05:10:58;;;;;;;7.45;3.60;;;16.40;99.90;;;;;;5051544;28;20439;-72
2021/05/11 05:13:26;;;;;;;7.07;3.10;;;16.40;99.90;;;;;;5061244;28;20025;-72
2021/05/11 05:15:56;;;;;;;5.45;2.85;;;16.40;99.90;;;;;;5055932;28;20024;-72
2021/05/11 05:18:22;;;;;;;5.93;3.40;;;16.50;99.90;;;;;;5059886;28;20031;-72
2021/05/11 05:20:51;;;;;;;5.50;3.20;;;16.50;99.90;;;;;;5066250;28;20024;-72
2021/05/11 05:23:18;;;;;;;8.77;3.97;;;16.60;99.90;;;;;;5055959;28;20029;-72
2021/05/11 05:25:57;;;;;;;9.02;3.70;;;16.60;99.90;;;;;;5059516;28;20494;-73
2021/05/11 05:28:23;;;;;;;9.43;3.60;;;16.60;99.90;;;;;;5042401;28;20029;-72
2021/05/11 05:30:48;;;;;;;5.80;3.42;;;16.60;99.90;;;;;;5059130;28;20398;-72
2021/05/11 05:33:14;;;;;;;7.60;4.35;;;16.60;99.90;;;;;;5051840;28;20040;-72
2021/05/11 05:35:39;;;;;;;7.90;4.03;;;16.60;99.90;;;;;;5075003;28;20024;-72
2021/05/11 05:38:05;;;;;;;8.52;4.35;;;16.60;99.90;;;;;;5058568;28;20043;-72
2021/05/11 05:40:34;;;;;;;7.25;4.10;;;16.60;99.90;;;;;;5065630;28;20509;-72
2021/05/11 05:42:59;;;;;;;8.20;4.45;;;16.60;99.90;;;;;;5059444;28;20112;-72
2021/05/11 05:45:25;;;;;;;11.07;4.70;;;16.70;99.90;;;;;;5058674;28;20489;-72
2021/05/11 05:47:51;;;;;;;8.60;4.07;;;16.70;99.90;;;;;;5062993;28;20025;-72
2021/05/11 05:50:28;;;;;;;11.27;5.65;;;16.70;99.90;;;;;;5056793;28;20070;-72
2021/05/11 05:53:12;;;;;;;7.47;4.82;;;16.60;99.90;;;;;;5051994;28;20044;-72
2021/05/11 05:55:38;;;;;;;11.60;5.20;;;16.60;99.90;;;;;;5061874;28;20470;-72
2021/05/11 05:58:04;;;;;;;9.77;5.63;;;16.60;99.90;;;;;;5064529;28;20035;-72
2021/05/11 06:00:30;;;;;;;11.90;5.45;;;16.80;99.90;;;;;;5066325;28;20028;-72
2021/05/11 06:03:04;;;;;;;9.05;5.18;;;16.70;99.90;;;;;;5067264;28;20081;-75
2021/05/11 06:05:31;;;;;;;11.52;5.85;;;16.70;99.90;;;;;;5060448;28;20029;-72
2021/05/11 06:07:56;;;;;;;6.63;4.95;;;16.70;99.90;;;;;;5063034;28;20373;-72
2021/05/11 06:10:25;;;;;;;7.72;5.60;;;16.60;99.90;;;;;;5065303;28;20035;-72
2021/05/11 06:12:55;;;;;;;10.98;6.30;;;16.70;99.90;;;;;;5060006;28;20037;-72
2021/05/11 06:18:05;;;;;;;10.50;5.60;;;16.70;99.90;;;;;;5062055;28;20043;-71
2021/05/11 06:20:31;;;;;;;14.02;5.70;;;16.80;99.90;;;;;;5061769;28;20025;-71
2021/05/11 06:22:56;;;;;;;7.53;4.90;;;16.70;99.90;;;;;;5046106;28;20035;-71
2021/05/11 06:25:22;;;;;;;10.32;5.50;;;16.80;99.90;;;;;;5064385;28;20104;-72
2021/05/11 06:27:55;;;;;;;8.88;5.28;;;16.80;99.90;;;;;;5060232;28;20028;-72
2021/05/11 06:30:21;;;;;;;10.43;5.90;;;16.80;99.90;;;;;;5059260;28;20029;-72
2021/05/11 06:32:47;;;;;;;7.28;5.30;;;16.80;99.90;;;;;;5051822;28;20028;-72
2021/05/11 06:35:13;;;;;;;9.57;4.75;;;16.80;99.90;;;;;;5072118;28;20085;-72
2021/05/11 06:37:38;;;;;;;9.25;5.28;;;16.70;99.90;;;;;;5068666;28;20029;-73
2021/05/11 06:40:05;;;;;;;9.07;5.45;;;16.80;99.90;;;;;;5069935;28;20040;-73
2021/05/11 06:42:31;;;;;;;13.77;5.63;;;16.80;99.90;;;;;;5060709;28;20025;-73
2021/05/11 06:52:56;;;;;;;11.57;4.85;;;17.00;99.90;;;;;;5074481;28;20172;-73
2021/05/11 06:55:21;;;;;;;;;;;17.00;99.90;;;;;;5073316;28;20506;-73
2021/05/11 06:57:48;;;;;;;10.50;5.03;;;17.10;99.90;;;;;;5064893;28;19917;-76
2021/05/11 07:00:14;;;;;;;12.40;4.95;;;17.20;99.90;;;;;;5065601;28;20044;-74
2021/05/11 07:02:40;;;;;;;7.68;4.47;;;17.30;99.90;;;;;;5055008;28;20024;-72
2021/05/11 07:05:05;;;;;;;12.57;5.15;;;17.40;99.90;;;;;;5073591;28;20029;-74
2021/05/11 07:07:32;;;;;;;6.32;4.03;;;17.50;99.90;;;;;;5061540;28;20021;-75
2021/05/11 07:10:22;;;;;;;14.13;3.47;;;17.50;99.90;;;;;;5066376;28;20040;-79
2021/05/11 07:15:28;;;;;;;9.35;4.38;;;17.50;99.90;;;;;;5066411;28;20503;-73
2021/05/11 07:18:24;;;;;;;9.85;4.97;;;17.70;99.90;;;;;;5068934;28;20029;-76
2021/05/11 07:20:55;;;;;;;7.07;3.88;;;17.80;99.90;;;;;;5066154;28;20461;-71
2021/05/11 07:23:21;;;;;;;6.93;4.30;;;17.70;99.90;;;;;;5061441;28;20039;-75
2021/05/11 07:31:05;;;;;;;12.82;4.22;;;18.00;99.90;;;;;;5062382;28;20040;-74
2021/05/11 07:33:46;;;;;;;18.02;5.57;;;18.10;99.90;;;;;;5066197;28;20035;-75
2021/05/11 07:36:12;;;;;;;7.20;4.45;;;18.00;99.90;;;;;;5055863;28;20020;-73
2021/05/11 07:38:38;;;;;;;8.20;4.15;;;18.00;99.90;;;;;;5052145;28;20059;-73
2021/05/11 07:41:06;;;;;;;8.40;4.15;;;18.00;99.90;;;;;;5068495;28;20021;-73
2021/05/11 07:43:34;;;;;;;7.40;4.47;;;18.10;99.90;;;;;;5057696;28;20032;-73
2021/05/11 07:49:26;;;;;;;13.10;4.43;;;18.10;99.90;;;;;;5063326;28;20155;-74
2021/05/11 08:05:20;;;;;;;6.55;3.40;;;18.10;99.90;;;;;;5052790;28;20039;-73
2021/05/11 08:16:02;;;;;;;8.52;3.22;;;18.10;99.90;;;;;;5066516;28;20102;-74
2021/05/11 08:18:35;;;;;;;10.75;3.67;;;18.00;99.90;;;;;;5067682;28;20071;-74
2021/05/11 08:29:13;;;;;;;7.53;3.67;;;18.00;99.90;;;;;;5062782;28;20047;-74
2021/05/11 08:31:40;;;;;;;13.50;3.40;;;18.10;99.90;;;;;;5066441;28;20041;-76
2021/05/11 08:34:06;;;;;;;9.90;4.03;;;18.10;99.90;;;;;;5068273;28;20103;-72
2021/05/11 08:36:31;;;;;;;9.88;3.05;;;18.20;99.90;;;;;;5064397;28;20104;-72
2021/05/11 08:38:57;;;;;;;11.63;4.25;;;18.20;99.90;;;;;;5070240;28;20154;-71
2021/05/11 08:41:23;;;;;;;6.82;2.78;;;18.20;99.90;;;;;;5067951;28;20090;-71
2021/05/11 08:43:49;;;;;;;7.80;3.33;;;18.20;99.90;;;;;;5067874;28;20092;-72
2021/05/11 08:46:15;;;;;;;25.73;7.07;;;18.20;99.90;;;;;;5076879;28;20116;-69
2021/05/11 08:48:41;;;;;;;18.33;4.60;;;18.30;99.90;;;;;;5067918;28;20151;-69
2021/05/11 09:07:33;;;;;;;23.58;9.75;;;18.10;99.90;;;;;;5064369;28;20440;-71
2021/05/11 09:24:13;;;;;;;9.32;3.33;;;18.10;99.90;;;;;;5061631;28;20090;-72
2021/05/11 10:48:27;;;;;;;28.08;5.10;;;20.20;99.90;;;;;;5062568;28;20036;-71
2021/05/11 10:50:58;;;;;;;17.83;6.68;;;20.30;99.90;;;;;;5064873;28;20106;-71
2021/05/11 10:53:41;;;;;;;38.25;4.30;;;20.30;99.90;;;;;;5057153;28;20390;-71
2021/05/11 10:56:36;;;;;;;20.73;5.35;;;20.30;99.90;;;;;;5067144;28;20017;-68
2021/05/11 11:01:56;;;;;;;163.75;11.80;;;20.20;99.90;;;;;;5064846;28;20051;-68
2021/05/11 11:04:29;;;;;;;973.38;79.13;;;20.30;99.90;;;;;;5059195;28;20035;-69
2021/05/11 11:07:01;;;;;;;42.05;5.95;;;20.20;99.90;;;;;;5068106;28;20032;-69
2021/05/11 11:09:57;;;;;;;17.33;3.92;;;20.20;99.90;;;;;;5051439;28;20152;-69
2021/05/11 11:12:23;;;;;;;26.55;4.18;;;20.20;99.90;;;;;;5057802;28;20048;-69
2021/05/11 11:14:49;;;;;;;8.50;3.30;;;20.30;99.90;;;;;;5065909;28;20060;-68
2021/05/11 11:17:16;;;;;;;11.50;4.13;;;20.30;99.90;;;;;;5065180;28;20122;-67
2021/05/11 11:19:49;;;;;;;7.20;4.45;;;20.20;99.90;;;;;;5064057;28;20036;-70
2021/05/11 11:25:00;;;;;;;6.63;3.38;;;20.10;99.90;;;;;;5069342;28;20543;-69
2021/05/11 11:27:31;;;;;;;11.88;6.00;;;20.10;99.90;;;;;;5070979;28;20055;-70
2021/05/11 11:30:01;;;;;;;9.70;4.05;;;20.00;99.90;;;;;;5063451;28;20025;-69
2021/05/11 11:32:27;;;;;;;10.98;6.32;;;20.00;99.90;;;;;;5062907;28;20047;-70
2021/05/11 11:34:54;;;;;;;11.93;6.18;;;20.00;99.90;;;;;;5060636;28;20025;-69
2021/05/11 11:37:22;;;;;;;9.95;4.40;;;20.00;99.90;;;;;;5069996;28;20032;-68
2021/05/11 11:39:50;;;;;;;8.98;3.78;;;20.00;99.90;;;;;;5067475;28;20385;-69
2021/05/11 11:42:21;;;;;;;8.27;3.30;;;19.90;99.90;;;;;;5053887;28;20024;-68
2021/05/11 11:44:58;;;;;;;13.50;7.65;;;19.90;99.90;;;;;;5065956;28;20505;-71
2021/05/11 11:47:25;;;;;;;9.15;3.95;;;19.90;99.90;;;;;;5063495;28;20074;-70
2021/05/11 11:49:54;;;;;;;6.57;2.40;;;19.80;99.90;;;;;;5063682;28;20023;-71
2021/05/11 11:57:48;;;;;;;7.95;2.70;;;19.70;99.90;;;;;;5068075;28;20090;-70
2021/05/11 12:00:16;;;;;;;5.43;2.20;;;19.60;99.90;;;;;;5065070;28;20045;-70
2021/05/11 12:02:54;;;;;;;7.63;2.13;;;19.50;99.90;;;;;;5059241;28;20078;-71
2021/05/11 12:05:21;;;;;;;7.45;2.55;;;19.60;99.90;;;;;;5066565;28;20039;-68
2021/05/11 12:10:33;;;;;;;4.43;2.50;;;19.60;99.90;;;;;;5068455;28;20412;-69
2021/05/11 12:13:06;;;;;;;5.00;2.15;;;19.60;99.90;;;;;;5071481;28;20035;-69
2021/05/11 12:15:32;;;;;;;5.03;2.65;;;19.50;99.90;;;;;;5069803;28;20016;-70
2021/05/11 12:20:38;;;;;;;6.75;2.80;;;19.50;99.90;;;;;;5057917;28;20113;-69
2021/05/11 12:23:15;;;;;;;10.30;2.85;;;19.50;99.90;;;;;;5068579;28;20571;-69
2021/05/11 12:25:54;;;;;;;4.78;2.30;;;19.50;99.90;;;;;;5071243;28;20073;-69
2021/05/11 12:28:33;;;;;;;4.32;2.00;;;19.60;99.90;;;;;;5049930;28;20021;-71
2021/05/11 12:30:59;;;;;;;5.32;2.42;;;19.60;99.90;;;;;;5058780;28;20111;-71
2021/05/11 12:33:32;;;;;;;4.40;2.05;;;19.60;99.90;;;;;;5063959;28;20060;-69
2021/05/11 12:36:00;;;;;;;7.18;2.22;;;19.60;99.90;;;;;;5062186;28;20041;-68
2021/05/11 12:38:26;;;;;;;3.75;2.00;;;19.60;99.90;;;;;;5063496;28;20044;-69
2021/05/11 12:43:44;;;;;;;17.75;8.13;;;19.70;99.90;;;;;;5068292;28;20362;-70
2021/05/11 12:46:30;;;;;;;8.32;3.70;;;19.70;99.90;;;;;;5064968;28;20060;-67
2021/05/11 12:49:19;;;;;;;345.67;23.90;;;19.70;99.90;;;;;;5058617;28;20029;-70
2021/05/11 12:51:51;;;;;;;38.95;4.32;;;19.80;99.90;;;;;;5063833;28;20044;-69
2021/05/11 12:54:25;;;;;;;5.88;2.78;;;20.00;99.90;;;;;;5066895;28;20951;-69
2021/05/11 13:00:17;;;;;;;8.70;3.28;;;19.90;99.90;;;;;;5061136;28;20024;-69
2021/05/11 13:05:14;;;;;;;6.10;3.73;;;19.30;99.90;;;;;;5066518;28;20043;-69
2021/05/11 13:21:32;;;;;;;9.63;5.13;;;19.20;99.90;;;;;;5066385;28;20143;-68
2021/05/11 13:26:47;;;;;;;7.22;4.43;;;19.10;99.90;;;;;;5068682;28;20081;-68
2021/05/11 13:29:23;;;;;;;5.78;4.45;;;19.10;99.90;;;;;;5059481;28;20302;-68
2021/05/11 13:31:59;;;;;;;11.85;5.28;;;19.20;99.90;;;;;;5059894;28;20032;-69
2021/05/11 13:34:25;;;;;;;8.27;4.35;;;19.10;99.90;;;;;;5068565;28;20477;-69
2021/05/11 13:36:51;;;;;;;16.40;5.10;;;19.10;99.90;;;;;;5069326;28;20073;-69
2021/05/11 13:39:16;;;;;;;10.82;4.63;;;19.30;99.90;;;;;;5062459;28;20401;-69
2021/05/11 13:41:44;;;;;;;7.65;3.97;;;19.40;99.90;;;;;;5061585;28;20013;-69
2021/05/11 13:44:09;;;;;;;7.90;4.00;;;19.40;99.90;;;;;;5063705;28;20928;-68
2021/05/11 13:46:35;;;;;;;5.93;4.05;;;19.50;99.90;;;;;;5057222;28;20172;-68
2021/05/11 13:49:01;;;;;;;7.18;3.50;;;19.50;99.90;;;;;;5063875;28;20032;-69
2021/05/11 13:51:27;;;;;;;7.57;4.18;;;19.60;99.90;;;;;;5064794;28;20036;-69
2021/05/11 13:53:58;;;;;;;9.18;3.65;;;19.60;99.90;;;;;;5049472;28;20500;-69
2021/05/11 14:04:02;;;;;;;19.73;3.28;;;20.00;99.90;;;;;;5067309;28;20119;-69
2021/05/11 14:06:28;;;;;;;38.50;5.43;;;20.00;99.90;;;;;;5060846;28;20473;-68
2021/05/11 14:08:53;;;;;;;12.73;3.50;;;20.00;99.90;;;;;;5055497;28;20403;-68
2021/05/11 14:11:20;;;;;;;6.78;2.67;;;20.00;99.90;;;;;;5048949;28;20032;-68
2021/05/11 14:13:45;;;;;;;4.80;2.22;;;20.00;99.90;;;;;;5056592;28;20459;-68
2021/05/11 14:16:11;;;;;;;6.45;2.28;;;20.00;99.90;;;;;;5034813;28;20031;-69
2021/05/11 14:18:40;;;;;;;8.80;2.65;;;20.10;99.90;;;;;;5063933;28;20032;-68
2021/05/11 14:21:06;;;;;;;5.90;2.53;;;20.00;99.90;;;;;;5078683;28;20020;-68
2021/05/11 14:23:33;;;;;;;6.15;2.00;;;20.10;99.90;;;;;;5058011;28;20052;-67
2021/05/11 14:26:00;;;;;;;4.00;2.25;;;20.10;99.90;;;;;;5061564;28;20024;-67
2021/05/11 14:28:25;;;;;;;7.22;2.35;;;20.00;99.90;;;;;;5066273;28;20086;-67
2021/05/11 14:30:51;;;;;;;3.25;2.00;;;20.00;99.90;;;;;;5070902;28;20025;-69
2021/05/11 14:33:17;;;;;;;8.23;2.58;;;20.00;99.90;;;;;;5074141;28;20090;-68
2021/05/11 14:35:42;;;;;;;7.88;2.03;;;20.10;99.90;;;;;;5062443;28;20029;-69
2021/05/11 14:38:08;;;;;;;25.27;3.47;;;20.10;99.90;;;;;;5056013;28;20461;-67
2021/05/11 14:40:34;;;;;;;11.88;2.40;;;20.10;99.90;;;;;;5072527;28;20754;-67
2021/05/11 14:42:59;;;;;;;27.58;4.70;;;20.10;99.90;;;;;;5072878;28;20082;-67
2021/05/11 14:45:26;;;;;;;7.50;2.33;;;20.20;99.90;;;;;;5065583;28;20546;-68
2021/05/11 14:47:53;;;;;;;6.50;2.40;;;20.20;99.90;;;;;;5069320;28;20110;-68
2021/05/11 14:50:20;;;;;;;6.47;3.35;;;20.20;99.90;;;;;;5067006;28;20028;-68
2021/05/11 14:52:53;;;;;;;4.45;2.58;;;20.20;99.90;;;;;;5065189;28;20033;-69
2021/05/11 14:55:23;;;;;;;4.70;2.00;;;20.20;99.90;;;;;;5068453;28;20052;-67
2021/05/11 14:57:49;;;;;;;7.03;2.13;;;20.10;99.90;;;;;;5059663;28;20067;-68
2021/05/11 15:00:15;;;;;;;6.35;2.30;;;20.10;99.90;;;;;;5068467;28;20461;-68
2021/05/11 15:02:41;;;;;;;6.03;2.10;;;20.00;99.90;;;;;;5074176;28;21648;-69
2021/05/11 15:05:07;;;;;;;4.97;2.40;;;20.10;99.90;;;;;;5066535;28;20028;-71
2021/05/11 15:07:33;;;;;;;6.43;2.08;;;20.20;99.90;;;;;;5071835;28;20400;-69
2021/05/11 15:09:58;;;;;;;5.22;2.15;;;20.30;99.90;;;;;;5071201;28;20563;-69
2021/05/11 15:12:24;;;;;;;5.53;1.90;;;20.30;99.90;;;;;;5069382;28;20044;-69
2021/05/11 15:14:50;;;;;;;6.85;2.85;;;20.40;99.90;;;;;;5060878;28;20020;-68
2021/05/11 15:19:51;;;;;;;5.13;2.20;;;20.50;99.90;;;;;;5070804;28;20394;-68
2021/05/11 15:22:17;;;;;;;7.90;1.77;;;20.60;99.90;;;;;;5069529;28;20020;-69
2021/05/11 15:24:44;;;;;;;4.40;2.20;;;20.60;99.90;;;;;;5064247;28;20496;-69
2021/05/11 15:27:09;;;;;;;4.55;2.42;;;20.60;99.90;;;;;;5069893;28;20788;-68
2021/05/11 15:29:37;;;;;;;4.72;2.22;;;20.60;99.90;;;;;;5071481;28;20143;-70
2021/05/11 15:32:23;;;;;;;7.03;2.60;;;20.60;99.90;;;;;;5069766;28;20370;-70
2021/05/11 15:34:48;;;;;;;7.38;2.47;;;20.60;99.90;;;;;;5058471;28;20025;-68
2021/05/11 15:37:16;;;;;;;6.45;2.42;;;20.60;99.90;;;;;;5076516;28;20093;-68
2021/05/11 15:39:41;;;;;;;7.22;3.25;;;20.60;99.90;;;;;;5068462;28;20044;-69
2021/05/11 15:42:07;;;;;;;7.55;3.10;;;20.60;99.90;;;;;;5068122;28;20029;-67
2021/05/11 15:44:34;;;;;;;6.78;3.08;;;20.60;99.90;;;;;;5065829;28;20021;-69
2021/05/11 15:47:00;;;;;;;6.22;2.60;;;20.50;99.90;;;;;;5069834;28;20040;-70
2021/05/11 15:49:25;;;;;;;7.95;3.20;;;20.50;99.90;;;;;;5068621;28;20035;-70
2021/05/11 15:51:51;;;;;;;8.65;2.90;;;20.50;99.90;;;;;;5061839;28;20032;-68
2021/05/11 15:54:17;;;;;;;9.40;2.83;;;20.30;99.90;;;;;;5071335;28;20028;-70
2021/05/11 15:56:43;;;;;;;8.23;2.88;;;20.10;99.90;;;;;;5065432;28;20049;-69
2021/05/11 15:59:09;;;;;;;12.75;3.45;;;20.00;99.90;;;;;;5063026;28;20024;-68
2021/05/11 16:01:34;;;;;;;11.80;3.70;;;20.00;99.90;;;;;;5069336;28;20468;-67
2021/05/11 16:04:00;;;;;;;12.07;4.00;;;19.80;99.90;;;;;;5070472;28;20432;-68
2021/05/11 16:06:26;;;;;;;8.02;3.45;;;19.70;99.90;;;;;;5062114;28;20025;-69
2021/05/11 16:08:51;;;;;;;5.13;3.60;;;19.50;99.90;;;;;;5058711;28;20393;-66
2021/05/11 16:11:17;;;;;;;7.93;3.17;;;19.40;99.90;;;;;;5070349;28;20040;-68
2021/05/11 16:13:42;;;;;;;7.40;3.50;;;19.30;99.90;;;;;;5067379;28;20039;-67
2021/05/11 16:16:08;;;;;;;6.07;4.07;;;19.30;99.90;;;;;;5065450;28;20147;-68
2021/05/11 16:18:34;;;;;;;10.18;3.83;;;19.30;99.90;;;;;;5064203;28;20069;-67
2021/05/11 16:20:59;;;;;;;6.57;3.30;;;19.20;99.90;;;;;;5065448;28;20032;-67
2021/05/11 16:23:25;;;;;;;7.65;3.60;;;19.20;99.90;;;;;;5065981;28;20032;-67
2021/05/11 16:25:51;;;;;;;6.88;2.97;;;19.10;99.90;;;;;;5071019;28;20044;-67
2021/05/11 16:28:16;;;;;;;5.55;3.17;;;19.10;99.90;;;;;;5066487;28;20100;-67
2021/05/11 16:30:42;;;;;;;5.72;3.13;;;19.10;99.90;;;;;;5071405;28;20030;-68
2021/05/11 16:33:10;;;;;;;7.18;3.38;;;19.10;99.90;;;;;;5061865;28;20037;-67
2021/05/11 16:35:36;;;;;;;8.18;2.95;;;19.10;99.90;;;;;;5060709;28;20186;-67
2021/05/11 16:38:02;;;;;;;5.97;3.08;;;19.10;99.90;;;;;;5068344;28;20016;-68
2021/05/11 16:40:27;;;;;;;7.43;3.67;;;19.00;99.90;;;;;;5055740;28;20477;-67
2021/05/11 16:42:56;;;;;;;7.20;3.67;;;19.00;99.90;;;;;;5064078;28;20797;-67
2021/05/11 16:45:22;;;;;;;6.93;3.13;;;18.90;99.90;;;;;;5062167;28;20066;-66
2021/05/11 16:47:55;;;;;;;9.57;4.13;;;18.90;99.90;;;;;;5066500;28;20052;-67
2021/05/11 16:50:25;;;;;;;9.48;4.55;;;18.90;99.90;;;;;;5052058;28;20108;-66
2021/05/11 16:52:53;;;;;;;5.55;3.50;;;18.90;99.90;;;;;;5063962;28;20028;-66
2021/05/11 16:55:19;;;;;;;4.82;3.72;;;18.90;99.90;;;;;;5065360;28;20126;-66
2021/05/11 16:57:45;;;;;;;5.93;3.33;;;19.00;99.90;;;;;;5067370;28;20377;-66
2021/05/11 17:00:11;;;;;;;6.25;3.55;;;18.90;99.90;;;;;;5067263;28;20028;-66
2021/05/11 17:02:37;;;;;;;6.07;3.70;;;18.90;99.90;;;;;;5060038;28;20416;-67
2021/05/11 17:05:03;;;;;;;6.60;3.70;;;18.90;99.90;;;;;;5061990;28;20090;-66
2021/05/11 17:07:29;;;;;;;8.02;4.00;;;18.90;99.90;;;;;;5064763;28;20086;-68
2021/05/11 17:09:54;;;;;;;6.55;4.18;;;18.90;99.90;;;;;;5084412;28;20037;-66
2021/05/11 17:12:20;;;;;;;10.15;5.05;;;18.80;99.90;;;;;;5070357;28;20036;-66
2021/05/11 17:14:45;;;;;;;5.63;3.83;;;18.80;99.90;;;;;;5065674;28;20094;-65
2021/05/11 17:17:11;;;;;;;8.10;5.28;;;18.70;99.90;;;;;;5066754;28;20024;-66
2021/05/11 17:19:37;;;;;;;7.85;4.68;;;18.70;99.90;;;;;;5065520;28;20100;-66
2021/05/11 17:22:03;;;;;;;7.28;5.25;;;18.70;99.90;;;;;;5061315;28;20028;-66
2021/05/11 17:24:28;;;;;;;8.55;5.40;;;18.70;99.90;;;;;;5063694;28;20048;-65